BWA1723 TTCP-TTPP
Flight info
| Callsign | BWA1723 |
|---|---|
| Flight time | N/A |
| Altitude | 6000 |
| Route | NAPKO DCT LEXOR DCT TALUS |
| Aircraft | B738/M-SDE2E3FGHIRWXY/LB1 |
Departure
| Time | 2026-05-07 21:31 |
|---|---|
| Airport | A.N.R. Robinson International Airport (TTCP) |
Arrival
| Time | N/A |
|---|---|
| Airport | Piarco International Airport (TTPP) |
| Time | Latitude | Longitude | Altitude | Speed | Heading |
|---|---|---|---|---|---|
| 2026-05-07 21:00 | 11.15183 | -60.84014 | 8 ft | 0 kts | 4° |
| 2026-05-07 21:25 | 11.15177 | -60.84014 | 8 ft | 2 kts | 2° |
| 2026-05-07 21:25 | 11.15157 | -60.84014 | 8 ft | 3 kts | 349° |
| 2026-05-07 21:26 | 11.15139 | -60.84008 | 8 ft | 3 kts | 330° |
| 2026-05-07 21:26 | 11.15124 | -60.83996 | 8 ft | 3 kts | 300° |
| 2026-05-07 21:26 | 11.15119 | -60.83983 | 8 ft | 0 kts | 275° |
| 2026-05-07 21:29 | 11.15119 | -60.83986 | 8 ft | 3 kts | 275° |
| 2026-05-07 21:29 | 11.15122 | -60.84016 | 8 ft | 3 kts | 275° |
| 2026-05-07 21:29 | 11.15124 | -60.84034 | 8 ft | 4 kts | 275° |
| 2026-05-07 21:29 | 11.15128 | -60.84085 | 8 ft | 9 kts | 275° |
| 2026-05-07 21:30 | 11.15117 | -60.84120 | 8 ft | 4 kts | 238° |
| 2026-05-07 21:30 | 11.15087 | -60.84168 | 8 ft | 12 kts | 231° |
| 2026-05-07 21:30 | 11.15035 | -60.84139 | 8 ft | 15 kts | 112° |
| 2026-05-07 21:30 | 11.15012 | -60.83819 | 8 ft | 82 kts | 94° |
| 2026-05-07 21:31 | 11.14951 | -60.82998 | 8 ft | 148 kts | 92° |
| 2026-05-07 21:31 | 11.14838 | -60.81793 | 323 ft | 184 kts | 97° |
| 2026-05-07 21:31 | 11.14617 | -60.80534 | 1385 ft | 173 kts | 107° |
| 2026-05-07 21:31 | 11.13900 | -60.79604 | 2327 ft | 176 kts | 150° |
| 2026-05-07 21:32 | 11.12639 | -60.79475 | 2821 ft | 204 kts | 193° |
| 2026-05-07 21:32 | 11.11407 | -60.80349 | 3187 ft | 235 kts | 227° |
| 2026-05-07 21:32 | 11.10469 | -60.81844 | 3609 ft | 259 kts | 237° |
| 2026-05-07 21:32 | 11.09524 | -60.83444 | 4389 ft | 269 kts | 238° |
| 2026-05-07 21:33 | 11.08548 | -60.85126 | 5098 ft | 281 kts | 238° |
| 2026-05-07 21:33 | 11.07535 | -60.86873 | 5634 ft | 289 kts | 238° |
| 2026-05-07 21:33 | 11.06513 | -60.88636 | 5935 ft | 290 kts | 238° |
| 2026-05-07 21:33 | 11.05489 | -60.90399 | 5984 ft | 288 kts | 238° |
| 2026-05-07 21:34 | 11.04490 | -60.92121 | 5988 ft | 284 kts | 238° |
| 2026-05-07 21:34 | 11.03494 | -60.93838 | 5991 ft | 280 kts | 238° |
| 2026-05-07 21:34 | 11.02506 | -60.95541 | 5991 ft | 278 kts | 238° |
| 2026-05-07 21:34 | 11.01523 | -60.97233 | 5992 ft | 278 kts | 238° |
| 2026-05-07 21:35 | 11.00538 | -60.98931 | 5991 ft | 279 kts | 238° |
| 2026-05-07 21:35 | 10.99547 | -61.00637 | 5990 ft | 279 kts | 238° |
| 2026-05-07 21:35 | 10.98557 | -61.02342 | 5989 ft | 279 kts | 238° |
| 2026-05-07 21:35 | 10.97570 | -61.04041 | 5988 ft | 279 kts | 238° |
| 2026-05-07 21:36 | 10.96581 | -61.05745 | 5988 ft | 279 kts | 238° |
| 2026-05-07 21:36 | 10.95591 | -61.07449 | 5987 ft | 279 kts | 238° |
| 2026-05-07 21:36 | 10.94602 | -61.09150 | 5986 ft | 279 kts | 238° |
| 2026-05-07 21:36 | 10.93628 | -61.10830 | 5984 ft | 279 kts | 238° |
| 2026-05-07 21:37 | 10.92641 | -61.12534 | 5983 ft | 279 kts | 238° |
| 2026-05-07 21:37 | 10.91651 | -61.14241 | 5981 ft | 279 kts | 238° |
| 2026-05-07 21:37 | 10.90666 | -61.15939 | 5980 ft | 279 kts | 238° |
| 2026-05-07 21:37 | 10.89708 | -61.17590 | 5979 ft | 279 kts | 238° |
| 2026-05-07 21:38 | 10.88785 | -61.19164 | 5975 ft | 279 kts | 235° |
| 2026-05-07 21:38 | 10.87468 | -61.20552 | 5968 ft | 276 kts | 215° |
| 2026-05-07 21:38 | 10.85860 | -61.21620 | 5888 ft | 277 kts | 210° |
| 2026-05-07 21:38 | 10.84184 | -61.22641 | 5639 ft | 281 kts | 208° |
| 2026-05-07 21:39 | 10.82483 | -61.23591 | 5388 ft | 277 kts | 206° |
| 2026-05-07 21:39 | 10.80797 | -61.24522 | 5137 ft | 274 kts | 206° |
| 2026-05-07 21:39 | 10.79139 | -61.25423 | 4888 ft | 270 kts | 205° |
| 2026-05-07 21:39 | 10.77480 | -61.26306 | 4636 ft | 267 kts | 205° |
| 2026-05-07 21:40 | 10.75837 | -61.27182 | 4385 ft | 264 kts | 205° |
| 2026-05-07 21:40 | 10.74218 | -61.28053 | 4138 ft | 261 kts | 205° |
| 2026-05-07 21:40 | 10.72637 | -61.28907 | 4067 ft | 251 kts | 205° |
| 2026-05-07 21:40 | 10.71117 | -61.29696 | 4050 ft | 241 kts | 205° |
| 2026-05-07 21:41 | 10.69674 | -61.30474 | 4089 ft | 235 kts | 205° |
| 2026-05-07 21:41 | 10.68231 | -61.31270 | 3957 ft | 237 kts | 205° |
| 2026-05-07 21:41 | 10.66768 | -61.32069 | 3564 ft | 239 kts | 205° |
| 2026-05-07 21:41 | 10.65328 | -61.32861 | 3145 ft | 234 kts | 205° |
| 2026-05-07 21:42 | 10.63919 | -61.33644 | 2718 ft | 228 kts | 205° |
| 2026-05-07 21:42 | 10.62774 | -61.34725 | 2251 ft | 229 kts | 239° |
| 2026-05-07 21:42 | 10.62438 | -61.36284 | 1850 ft | 226 kts | 265° |
| 2026-05-07 21:42 | 10.62440 | -61.37823 | 1709 ft | 207 kts | 269° |
| 2026-05-07 21:43 | 10.62476 | -61.39218 | 1643 ft | 188 kts | 270° |
| 2026-05-07 21:43 | 10.62511 | -61.40471 | 1645 ft | 168 kts | 270° |
| 2026-05-07 21:43 | 10.62542 | -61.41614 | 1668 ft | 159 kts | 270° |
| 2026-05-07 21:43 | 10.62575 | -61.42743 | 1720 ft | 159 kts | 270° |
| 2026-05-07 21:44 | 10.62438 | -61.43856 | 1675 ft | 160 kts | 239° |
| 2026-05-07 21:44 | 10.61598 | -61.44442 | 1631 ft | 147 kts | 189° |